首页
METAR-TAF:

METAR-TAF

机场 :

伊斯坦堡新機場

伊斯坦堡, 土耳其

纬度: 41-16-31N, 经度: 028-45-07E, 海拔: 99米

当前天气观测

该预报发布于32分钟前的19:50 UTC
风速25节,风向西南,有时为35节阵风
温度 15°C
湿度 55%
气压 1005 hPa
能见度10公里或以上
1500米以下无云,无积雨云

METAR: LTFM 261950Z 22025G35KT CAVOK 15/06 Q1005 NOSIG RMK RWY17L 22020KT RWY34L 21022G32KT RWY16R 22018KT

时间: 23:22 (20:22 UTC)

预报

该预报发布于3小时和42分钟前的16:40 UTC
预报有效从26日的 18点(UTC)到 27日的 24点(UTC)
风速15节,风向南转西南,有时为33节阵风
能见度10公里或以上
1500米以下无云,无积雨云
成为
从 26日的 20点(UTC)到 26日的 24点(UTC)
风速24节,风向南转西南,有时为45节阵风
成为
从 27日的 03点(UTC)到 27日的 06点(UTC)
散云层高于3200英尺
多云层高于10000英尺
短暂存在
从 27日的 09点(UTC)到 27日的 13点(UTC)
能見度: 4000
少量云层高于1700英尺, 积雨云.
多云层高于2800英尺
雷暴, 小雨
成为
从 27日的 13点(UTC)到 27日的 15点(UTC)
风速14节,风向西转西南
几率 30% :
短暂存在
从 27日的 15点(UTC)到 27日的 18点(UTC)
风速18节,风向西,有时为32节阵风
能見度: 4000
少量云层高于1700英尺, 积雨云.
多云层高于2500英尺
雷暴, 小雨

TAF: LTFM 261640Z 2618/2724 21015G33KT CAVOK BECMG 2620/2624 21024G45KT BECMG 2703/2706 SCT032 BKN100 TEMPO 2709/2713 4000 -TSRA FEW017CB BKN028 BECMG 2713/2715 25014KT PROB30 TEMPO 2715/2718 26018G32KT 4000 -TSRA FEW017CB BKN025

超过4000个机场的气象观测和天气预报(METAR&TAF报告)。

可查询的气象台以黄色和红色小点在地图上表示。

将鼠标移到小点上方,可查看气象台名称。

然后点击查看天气观测和预报。

如需切换地图:点击带黑十字的绿色按钮放大地图;点击带横线的绿色按钮缩小地图;或者点击绿色箭头查看邻近地区的地图。


METAR-TAF: